NCAR-RAP Real-Time Weather Data

Output produced by METARs form (14 October 2019  23:11 UTC)
found at http://weather.rap.ucar.edu/surface/
 
KSTC 142253Z 14003KT 10SM CLR 08/01 A2990 RMK AO2 SLP141 T00780006 $
KSTC 142153Z 20007KT 10SM CLR 08/00 A2990 RMK AO2 SLP142 T00830000 $